createdAt,value
2022-10-03T00:01:18.908Z,100.00
2022-10-03T00:02:40.256Z,100.00
2022-10-03T00:05:56.854Z,100.00
2022-10-03T00:07:02.642Z,100.00
2022-10-03T00:08:20.770Z,100.00
2022-10-03T00:09:26.444Z,100.00
2022-10-03T00:10:41.571Z,100.00
2022-10-03T00:12:10.280Z,100.00
2022-10-03T00:13:22.024Z,100.00
2022-10-03T00:14:33.842Z,100.00
2022-10-03T00:15:56.605Z,100.00
2022-10-03T00:17:11.796Z,100.00
2022-10-03T00:18:26.986Z,100.00
2022-10-03T00:20:06.791Z,100.00
2022-10-03T00:21:24.399Z,100.00
2022-10-03T00:24:11.306Z,100.00
2022-10-03T00:25:39.780Z,100.00
2022-10-03T00:26:54.865Z,100.00
2022-10-03T00:28:16.236Z,100.00
2022-10-03T00:29:51.423Z,100.00
2022-10-03T00:32:35.958Z,100.00
2022-10-03T00:33:41.901Z,100.00
2022-10-03T00:34:50.454Z,100.00
2022-10-03T00:36:16.045Z,100.00
2022-10-03T00:37:24.815Z,100.00
2022-10-03T00:38:30.518Z,100.00
2022-10-03T00:40:00.125Z,100.00
2022-10-03T00:41:26.698Z,100.00
2022-10-03T00:43:00.131Z,100.00
2022-10-03T00:44:18.142Z,100.00
2022-10-03T00:45:36.163Z,100.00
2022-10-03T00:46:54.077Z,100.00
2022-10-03T00:48:19.896Z,100.00
2022-10-03T00:50:01.688Z,100.00
2022-10-03T00:51:19.497Z,100.00
2022-10-03T00:52:57.259Z,100.00
2022-10-03T00:54:21.395Z,100.00
2022-10-03T00:55:30.199Z,100.00
2022-10-03T00:57:41.628Z,100.00
2022-10-03T00:59:15.156Z,100.00
2022-10-03T01:00:29.429Z,100.00
2022-10-03T01:01:35.318Z,100.00
2022-10-03T01:02:52.793Z,100.00
2022-10-03T01:04:04.585Z,100.00
2022-10-03T01:05:40.524Z,100.00
2022-10-03T01:06:49.054Z,100.00
2022-10-03T01:08:23.362Z,100.00
2022-10-03T01:09:47.323Z,100.00
2022-10-03T01:10:59.343Z,100.00
2022-10-03T01:12:20.133Z,100.00
2022-10-03T01:14:54.400Z,100.00
2022-10-03T01:16:02.885Z,100.00
2022-10-03T01:17:37.445Z,100.00
2022-10-03T01:18:49.286Z,100.00
2022-10-03T01:20:19.203Z,100.00
2022-10-03T01:21:25.161Z,100.00
2022-10-03T01:22:58.128Z,100.00
2022-10-03T01:24:26.475Z,100.00
2022-10-03T01:25:51.956Z,100.00
2022-10-03T01:27:09.870Z,100.00
2022-10-03T01:28:18.481Z,100.00
2022-10-03T01:29:24.306Z,100.00
2022-10-03T01:30:30.336Z,100.00
2022-10-03T01:32:03.469Z,100.00
2022-10-03T01:33:15.343Z,100.00
2022-10-03T01:34:21.158Z,100.00
2022-10-03T01:35:45.125Z,100.00
2022-10-03T01:38:31.138Z,100.00
2022-10-03T01:39:52.018Z,100.00
2022-10-03T01:41:18.104Z,100.00
2022-10-03T01:42:39.114Z,100.00
2022-10-03T01:43:53.975Z,100.00
2022-10-03T01:45:08.857Z,100.00
2022-10-03T01:46:36.028Z,100.00
2022-10-03T01:47:50.799Z,100.00
2022-10-03T01:49:17.152Z,100.00
2022-10-03T01:50:31.834Z,100.00
2022-10-03T01:52:03.150Z,100.00
2022-10-03T01:53:30.219Z,100.00
2022-10-03T01:54:47.912Z,100.00
2022-10-03T01:56:12.200Z,100.00
2022-10-03T01:59:07.431Z,100.00
2022-10-03T02:00:19.090Z,100.00
2022-10-03T02:01:22.919Z,100.00
2022-10-03T02:02:31.682Z,100.00
2022-10-03T02:03:51.930Z,100.00
2022-10-03T02:05:18.043Z,100.00
2022-10-03T02:06:36.054Z,100.00
2022-10-03T02:07:41.846Z,100.00
2022-10-03T02:08:53.394Z,100.00
2022-10-03T02:10:13.793Z,100.00
2022-10-03T02:11:31.360Z,100.00
2022-10-03T02:12:43.103Z,100.00
2022-10-03T02:13:51.844Z,100.00
2022-10-03T02:15:14.422Z,100.00
2022-10-03T02:16:46.191Z,100.00
2022-10-03T02:17:54.772Z,100.00
2022-10-03T02:19:06.598Z,100.00
2022-10-03T02:20:12.547Z,100.00
2022-10-03T02:21:18.534Z,100.00
2022-10-03T02:22:39.639Z,100.00
2022-10-03T02:23:44.705Z,100.00
2022-10-03T02:24:56.240Z,100.00
2022-10-03T02:26:00.058Z,100.00
2022-10-03T02:27:38.187Z,100.00
2022-10-03T02:28:58.682Z,100.00
2022-10-03T02:30:21.659Z,100.00
2022-10-03T02:31:47.361Z,100.00
2022-10-03T02:33:04.949Z,100.00
2022-10-03T02:34:16.915Z,100.00
2022-10-03T02:35:42.662Z,100.00
2022-10-03T02:37:05.607Z,100.00
2022-10-03T02:38:28.190Z,100.00
2022-10-03T02:39:49.279Z,100.00
2022-10-03T02:41:20.573Z,100.00
2022-10-03T02:42:32.273Z,100.00
2022-10-03T02:43:38.055Z,100.00
2022-10-03T02:45:09.064Z,100.00
2022-10-03T02:46:38.131Z,100.00
2022-10-03T02:48:08.432Z,100.00
2022-10-03T02:49:24.314Z,100.00
2022-10-03T02:50:56.436Z,100.00
2022-10-03T02:52:14.420Z,100.00
2022-10-03T02:53:39.968Z,100.00
2022-10-03T02:55:19.780Z,100.00
2022-10-03T02:56:45.577Z,100.00
2022-10-03T02:58:14.511Z,100.00
2022-10-03T02:59:36.689Z,100.00
2022-10-03T03:00:48.936Z,100.00
2022-10-03T03:02:11.927Z,100.00
2022-10-03T03:03:20.451Z,100.00
2022-10-03T03:04:44.338Z,100.00
2022-10-03T03:05:59.116Z,100.00
2022-10-03T03:07:34.909Z,100.00
2022-10-03T03:08:46.419Z,100.00
2022-10-03T03:10:08.503Z,100.00
2022-10-03T03:11:31.566Z,100.00
2022-10-03T03:12:49.528Z,100.00
2022-10-03T03:14:15.305Z,100.00
2022-10-03T03:15:53.328Z,100.00
2022-10-03T03:18:31.479Z,100.00
2022-10-03T03:19:42.987Z,100.00
2022-10-03T03:20:55.873Z,100.00
2022-10-03T03:22:07.551Z,100.00
2022-10-03T03:23:34.309Z,100.00
2022-10-03T03:24:42.731Z,100.00
2022-10-03T03:26:03.602Z,100.00
2022-10-03T03:27:24.117Z,100.00
2022-10-03T03:28:44.794Z,100.00
2022-10-03T03:29:50.642Z,100.00
2022-10-03T03:31:17.996Z,100.00
2022-10-03T03:32:26.589Z,100.00
2022-10-03T03:33:48.522Z,100.00
2022-10-03T03:35:03.540Z,100.00
2022-10-03T03:36:09.313Z,100.00
2022-10-03T03:37:15.036Z,100.00
2022-10-03T03:38:53.040Z,100.00
2022-10-03T03:40:20.320Z,100.00
2022-10-03T03:43:12.549Z,100.00
2022-10-03T03:44:38.210Z,100.00
2022-10-03T03:46:00.806Z,100.00
2022-10-03T03:47:29.719Z,100.00
2022-10-03T03:48:52.146Z,100.00
2022-10-03T03:50:31.911Z,100.00
2022-10-03T03:51:57.580Z,100.00
2022-10-03T03:53:20.334Z,100.00
2022-10-03T03:54:41.527Z,100.00
2022-10-03T03:56:11.669Z,100.00
2022-10-03T03:57:40.484Z,100.00
2022-10-03T03:58:55.339Z,100.00
2022-10-03T04:00:16.297Z,100.00
2022-10-03T04:01:42.524Z,100.00
2022-10-03T04:03:00.584Z,100.00
2022-10-03T04:04:17.952Z,100.00
2022-10-03T04:05:40.587Z,100.00
2022-10-03T04:07:03.279Z,100.00
2022-10-03T04:08:17.765Z,100.00
2022-10-03T04:09:40.332Z,100.00
2022-10-03T04:10:54.910Z,100.00
2022-10-03T04:12:06.319Z,100.00
2022-10-03T04:13:29.072Z,100.00
2022-10-03T04:14:53.233Z,100.00
2022-10-03T04:16:05.247Z,100.00
2022-10-03T04:17:13.956Z,100.00
2022-10-03T04:18:25.337Z,100.00
2022-10-03T04:19:33.855Z,100.00
2022-10-03T04:21:00.700Z,100.00
2022-10-03T04:22:06.853Z,100.00
2022-10-03T04:23:24.406Z,100.00
2022-10-03T04:24:44.993Z,100.00
2022-10-03T04:26:02.284Z,100.00
2022-10-03T04:27:23.401Z,100.00
2022-10-03T04:29:03.161Z,100.00
2022-10-03T04:30:18.155Z,100.00
2022-10-03T04:31:40.660Z,100.00
2022-10-03T04:33:05.223Z,100.00
2022-10-03T04:34:25.997Z,100.00
2022-10-03T04:35:47.067Z,100.00
2022-10-03T04:37:18.619Z,100.00
2022-10-03T04:38:39.664Z,100.00
2022-10-03T04:41:02.470Z,100.00
2022-10-03T04:42:14.229Z,100.00
2022-10-03T04:43:50.746Z,100.00
2022-10-03T04:45:13.296Z,100.00
2022-10-03T04:46:34.178Z,100.00
2022-10-03T04:47:57.950Z,100.00
2022-10-03T04:49:12.544Z,100.00
2022-10-03T04:50:36.857Z,100.00
2022-10-03T04:51:55.826Z,100.00
2022-10-03T04:53:16.804Z,100.00
2022-10-03T04:54:34.399Z,100.00
2022-10-03T04:55:42.828Z,100.00
2022-10-03T04:56:57.579Z,100.00
2022-10-03T04:58:18.626Z,100.00
2022-10-03T04:59:27.621Z,100.00
2022-10-03T05:00:49.997Z,100.00
2022-10-03T05:02:01.736Z,100.00
2022-10-03T05:03:22.630Z,100.00
2022-10-03T05:04:34.363Z,100.00
2022-10-03T05:05:43.130Z,100.00
2022-10-03T05:06:49.073Z,100.00
2022-10-03T05:08:03.787Z,100.00
2022-10-03T05:09:18.781Z,100.00
2022-10-03T05:10:46.125Z,100.00
2022-10-03T05:11:57.996Z,100.00
2022-10-03T05:13:03.714Z,100.00
2022-10-03T05:14:12.406Z,100.00
2022-10-03T05:15:30.024Z,100.00
2022-10-03T05:16:38.773Z,100.00
2022-10-03T05:18:05.334Z,100.00
2022-10-03T05:19:26.359Z,100.00
2022-10-03T05:20:47.447Z,100.00
2022-10-03T05:21:58.979Z,100.00
2022-10-03T05:23:20.192Z,100.00
2022-10-03T05:24:38.265Z,100.00
2022-10-03T05:26:02.743Z,100.00
2022-10-03T05:27:09.862Z,100.00
2022-10-03T05:28:18.635Z,100.00
2022-10-03T05:29:33.586Z,100.00
2022-10-03T05:30:48.511Z,100.00
2022-10-03T05:33:08.739Z,100.00
2022-10-03T05:34:29.536Z,100.00
2022-10-03T05:35:47.657Z,100.00
2022-10-03T05:37:13.222Z,100.00
2022-10-03T05:38:25.013Z,100.00
2022-10-03T05:40:01.265Z,100.00
2022-10-03T05:41:09.658Z,100.00
2022-10-03T05:42:38.493Z,100.00
2022-10-03T05:44:05.711Z,100.00
2022-10-03T05:45:26.607Z,100.00
2022-10-03T05:46:32.435Z,100.00
2022-10-03T05:47:53.537Z,100.00
2022-10-03T05:49:11.270Z,100.00
2022-10-03T05:50:23.645Z,100.00
2022-10-03T05:51:45.778Z,100.00
2022-10-03T05:54:11.355Z,100.00
2022-10-03T05:55:38.537Z,100.00
2022-10-03T05:57:03.777Z,100.00
2022-10-03T05:58:29.344Z,100.00
2022-10-03T05:59:46.620Z,100.00
2022-10-03T06:01:11.008Z,100.00
2022-10-03T06:02:36.564Z,100.00
2022-10-03T06:04:11.485Z,100.00
2022-10-03T06:05:17.434Z,100.00
2022-10-03T06:06:25.929Z,100.00
2022-10-03T06:07:48.546Z,100.00
2022-10-03T06:09:11.377Z,100.00
2022-10-03T06:10:23.165Z,100.00
2022-10-03T06:11:54.907Z,100.00
2022-10-03T06:13:12.998Z,100.00
2022-10-03T06:14:37.011Z,100.00
2022-10-03T06:16:00.741Z,100.00
2022-10-03T06:17:23.513Z,100.00
2022-10-03T06:18:58.475Z,100.00
2022-10-03T06:20:24.336Z,100.00
2022-10-03T06:21:53.137Z,100.00
2022-10-03T06:23:31.385Z,100.00
2022-10-03T06:25:00.808Z,100.00
2022-10-03T06:26:40.557Z,100.00
2022-10-03T06:28:12.410Z,100.00
2022-10-03T06:29:25.099Z,100.00
2022-10-03T06:30:43.090Z,100.00
2022-10-03T06:32:04.201Z,100.00
2022-10-03T06:33:33.101Z,100.00
2022-10-03T06:34:38.837Z,100.00
2022-10-03T06:36:06.052Z,100.00
2022-10-03T06:37:41.057Z,100.00
2022-10-03T06:39:03.769Z,100.00
2022-10-03T06:40:21.582Z,100.00
2022-10-03T06:41:52.426Z,100.00
2022-10-03T06:43:00.895Z,100.00
2022-10-03T06:44:12.734Z,100.00
2022-10-03T06:45:48.848Z,100.00
2022-10-03T06:47:26.828Z,100.00
2022-10-03T06:48:52.643Z,100.00
2022-10-03T06:50:13.742Z,100.00
2022-10-03T06:51:44.665Z,100.00
2022-10-03T06:53:02.958Z,100.00
2022-10-03T06:54:17.257Z,100.00
2022-10-03T06:55:42.656Z,100.00
2022-10-03T06:58:44.355Z,100.00
2022-10-03T07:01:15.884Z,100.00
2022-10-03T07:02:33.926Z,100.00
2022-10-03T07:05:30.789Z,100.00
2022-10-03T07:06:39.527Z,100.00
2022-10-03T07:07:54.240Z,100.00
2022-10-03T07:09:16.814Z,100.00
2022-10-03T07:10:45.314Z,100.00
2022-10-03T07:12:14.992Z,100.00
2022-10-03T07:13:40.679Z,100.00
2022-10-03T07:15:03.265Z,100.00
2022-10-03T07:16:26.925Z,100.00
2022-10-03T07:17:28.893Z,100.00
2022-10-03T07:19:08.252Z,100.00
2022-10-03T07:20:36.960Z,100.00
2022-10-03T07:21:52.261Z,100.00
2022-10-03T07:23:28.061Z,100.00
2022-10-03T07:24:50.735Z,100.00
2022-10-03T07:26:08.743Z,100.00
2022-10-03T07:27:20.508Z,100.00
2022-10-03T07:28:47.523Z,100.00
2022-10-03T07:30:21.595Z,100.00
2022-10-03T07:31:56.373Z,100.00
2022-10-03T07:33:23.444Z,100.00
2022-10-03T07:34:46.257Z,100.00
2022-10-03T07:36:08.704Z,100.00
2022-10-03T07:37:26.764Z,100.00
2022-10-03T07:38:50.705Z,100.00
2022-10-03T07:40:11.910Z,100.00
2022-10-03T07:41:17.838Z,100.00
2022-10-03T07:42:23.619Z,100.00
2022-10-03T07:43:32.516Z,100.00
2022-10-03T07:45:05.058Z,100.00
2022-10-03T07:46:32.595Z,100.00
2022-10-03T07:47:56.325Z,100.00
2022-10-03T07:49:37.363Z,100.00
2022-10-03T07:51:04.348Z,100.00
2022-10-03T07:52:10.144Z,100.00
2022-10-03T07:53:38.638Z,100.00
2022-10-03T07:54:55.987Z,100.00
2022-10-03T07:56:09.653Z,100.00
2022-10-03T07:57:15.225Z,100.00
2022-10-03T07:58:29.898Z,100.00
2022-10-03T08:00:00.129Z,100.00
2022-10-03T08:01:25.620Z,100.00
2022-10-03T08:02:48.368Z,100.00
2022-10-03T08:04:00.251Z,100.00
2022-10-03T08:05:25.435Z,100.00
2022-10-03T08:06:46.428Z,100.00
2022-10-03T08:08:09.012Z,100.00
2022-10-03T08:09:33.251Z,100.00
2022-10-03T08:10:56.975Z,100.00
2022-10-03T08:12:27.347Z,100.00
2022-10-03T08:13:57.072Z,100.00
2022-10-03T08:16:47.506Z,100.00
2022-10-03T08:17:59.215Z,100.00
2022-10-03T08:19:10.666Z,100.00
2022-10-03T08:20:30.374Z,100.00
2022-10-03T08:21:54.685Z,100.00
2022-10-03T08:23:12.651Z,100.00
2022-10-03T08:24:24.474Z,100.00
2022-10-03T08:25:30.230Z,100.00
2022-10-03T08:26:39.001Z,100.00
2022-10-03T08:27:51.013Z,100.00
2022-10-03T08:29:05.638Z,100.00
2022-10-03T08:30:39.186Z,100.00
2022-10-03T08:31:48.104Z,100.00
2022-10-03T08:33:00.173Z,100.00
2022-10-03T08:34:21.303Z,100.00
2022-10-03T08:35:46.717Z,100.00
2022-10-03T08:37:09.420Z,100.00
2022-10-03T08:38:28.248Z,100.00
2022-10-03T08:39:34.190Z,100.00
2022-10-03T08:41:02.265Z,100.00
2022-10-03T08:42:27.578Z,100.00
2022-10-03T08:43:54.166Z,100.00
2022-10-03T08:45:33.980Z,100.00
2022-10-03T08:46:46.104Z,100.00
2022-10-03T08:49:25.629Z,100.00
2022-10-03T08:50:34.593Z,100.00
2022-10-03T08:51:57.271Z,100.00
2022-10-03T08:53:03.163Z,100.00
2022-10-03T08:54:25.370Z,100.00
2022-10-03T08:55:40.379Z,100.00
2022-10-03T08:56:58.698Z,100.00
2022-10-03T08:58:19.073Z,100.00
2022-10-03T08:59:41.364Z,100.00
2022-10-03T09:01:03.643Z,100.00
2022-10-03T09:02:28.856Z,100.00
2022-10-03T09:03:57.603Z,100.00
2022-10-03T09:05:20.401Z,100.00
2022-10-03T09:07:15.931Z,100.00
2022-10-03T09:08:02.806Z,100.00
2022-10-03T09:09:08.576Z,100.00
2022-10-03T09:10:20.680Z,100.00
2022-10-03T09:11:41.205Z,100.00
2022-10-03T09:13:06.651Z,100.00
2022-10-03T09:14:27.734Z,100.00
2022-10-03T09:16:02.549Z,100.00
2022-10-03T09:17:37.637Z,100.00
2022-10-03T09:19:03.506Z,100.00
2022-10-03T09:20:18.662Z,100.00
2022-10-03T09:21:41.317Z,100.00
2022-10-03T09:23:08.711Z,99.47
2022-10-03T09:24:32.092Z,99.24
2022-10-03T09:25:47.067Z,99.51
2022-10-03T09:27:26.081Z,100.00
2022-10-03T09:28:48.680Z,99.93
2022-10-03T09:30:17.757Z,99.96
2022-10-03T09:31:42.281Z,99.82
2022-10-03T09:33:16.870Z,99.60
2022-10-03T09:34:39.597Z,99.84
2022-10-03T09:36:10.979Z,100.00
2022-10-03T09:37:32.054Z,100.00
2022-10-03T09:38:57.284Z,100.00
2022-10-03T09:40:19.713Z,99.71
2022-10-03T09:41:43.694Z,98.34
2022-10-03T09:43:04.359Z,97.43
2022-10-03T09:44:33.021Z,96.50
2022-10-03T09:45:54.081Z,95.82
2022-10-03T09:47:29.114Z,96.09
2022-10-03T09:48:44.182Z,96.23
2022-10-03T09:50:23.957Z,93.84
2022-10-03T09:51:35.709Z,94.43
2022-10-03T09:52:41.682Z,92.50
2022-10-03T09:54:05.188Z,92.83
2022-10-03T09:55:41.234Z,91.85
2022-10-03T09:57:03.734Z,90.05
2022-10-03T09:58:29.264Z,89.84
2022-10-03T09:59:52.017Z,89.78
2022-10-03T10:01:19.377Z,90.05
2022-10-03T10:02:37.703Z,89.84
2022-10-03T10:04:06.474Z,88.23
2022-10-03T10:05:29.892Z,87.24
2022-10-03T10:06:44.131Z,86.66
2022-10-03T10:08:19.134Z,86.17
2022-10-03T10:09:39.673Z,86.80
2022-10-03T10:11:02.362Z,86.63
2022-10-03T10:12:27.792Z,86.52
2022-10-03T10:14:09.689Z,86.36
2022-10-03T10:15:04.739Z,85.20
2022-10-03T10:16:27.341Z,86.50
2022-10-03T10:17:42.174Z,86.37
2022-10-03T10:19:12.087Z,85.95
2022-10-03T10:20:41.861Z,85.57
2022-10-03T10:21:53.374Z,85.58
2022-10-03T10:23:31.469Z,84.74
2022-10-03T10:25:12.568Z,85.86
2022-10-03T10:26:33.091Z,85.89
2022-10-03T10:27:56.377Z,85.89
2022-10-03T10:29:11.388Z,86.15
2022-10-03T10:32:21.168Z,84.89
2022-10-03T10:33:43.685Z,85.47
2022-10-03T10:34:58.498Z,85.14
2022-10-03T10:36:25.438Z,84.54
2022-10-03T10:37:47.993Z,84.81
2022-10-03T10:39:13.838Z,84.84
2022-10-03T10:40:53.480Z,84.83
2022-10-03T10:42:31.640Z,82.54
2022-10-03T10:43:53.897Z,83.01
2022-10-03T10:45:11.384Z,84.44
2022-10-03T10:46:28.998Z,83.79
2022-10-03T10:47:51.533Z,83.70
2022-10-03T10:49:18.616Z,84.20
2022-10-03T10:50:26.971Z,83.07
2022-10-03T10:51:49.464Z,83.62
2022-10-03T10:53:10.672Z,83.77
2022-10-03T10:54:25.670Z,83.77
2022-10-03T10:56:05.511Z,83.46
2022-10-03T10:57:37.490Z,82.72
2022-10-03T10:59:09.379Z,83.39
2022-10-03T11:00:30.531Z,82.46
2022-10-03T11:02:10.952Z,82.95
2022-10-03T11:03:45.616Z,82.01
2022-10-03T11:05:12.828Z,80.40
2022-10-03T11:06:24.740Z,80.25
2022-10-03T11:08:02.985Z,80.60
2022-10-03T11:09:25.138Z,80.73
2022-10-03T11:10:34.034Z,81.05
2022-10-03T11:12:14.731Z,81.99
2022-10-03T11:13:39.936Z,81.33
2022-10-03T11:15:19.263Z,80.99
2022-10-03T11:16:34.294Z,80.26
2022-10-03T11:18:05.530Z,81.17
2022-10-03T11:19:31.481Z,80.99
2022-10-03T11:21:12.606Z,81.12
2022-10-03T11:22:50.566Z,81.17
2022-10-03T11:24:11.757Z,81.32
2022-10-03T11:25:33.994Z,82.20
2022-10-03T11:27:13.698Z,83.17
2022-10-03T11:28:48.561Z,82.82
2022-10-03T11:30:11.105Z,82.37
2022-10-03T11:31:29.080Z,81.67
2022-10-03T11:32:44.296Z,82.08
2022-10-03T11:33:52.971Z,80.87
2022-10-03T11:36:46.603Z,81.31
2022-10-03T11:38:09.155Z,81.63
2022-10-03T11:39:27.320Z,80.89
2022-10-03T11:40:47.911Z,79.92
2022-10-03T11:42:02.971Z,79.94
2022-10-03T11:43:43.859Z,78.62
2022-10-03T11:44:52.114Z,79.39
2022-10-03T11:45:57.405Z,79.24
2022-10-03T11:47:24.454Z,78.97
2022-10-03T11:48:42.294Z,78.57
2022-10-03T11:50:05.654Z,78.99
2022-10-03T11:51:14.328Z,78.58
2022-10-03T11:52:29.202Z,79.31
2022-10-03T11:53:40.655Z,79.44
2022-10-03T11:54:46.573Z,79.37
2022-10-03T11:55:55.181Z,79.60
2022-10-03T11:57:07.065Z,80.04
2022-10-03T11:58:25.109Z,78.47
2022-10-03T11:59:55.603Z,79.06
2022-10-03T12:01:01.602Z,79.74
2022-10-03T12:02:16.832Z,78.64
2022-10-03T12:03:31.986Z,78.61
2022-10-03T12:04:52.621Z,78.41
2022-10-03T12:06:01.118Z,78.05
2022-10-03T12:07:13.628Z,78.48
2022-10-03T12:08:31.424Z,78.13
2022-10-03T12:10:09.535Z,78.74
2022-10-03T12:11:43.287Z,77.75
2022-10-03T12:12:49.282Z,77.36
2022-10-03T12:14:18.257Z,78.65
2022-10-03T12:15:41.787Z,79.03
2022-10-03T12:16:57.120Z,79.29
2022-10-03T12:19:14.120Z,79.17
2022-10-03T12:20:23.007Z,80.06
2022-10-03T12:21:51.966Z,80.29
2022-10-03T12:23:17.256Z,80.24
2022-10-03T12:24:28.640Z,80.79
2022-10-03T12:25:34.282Z,80.57
2022-10-03T12:27:04.252Z,80.78
2022-10-03T12:28:37.012Z,80.71
2022-10-03T12:29:42.683Z,79.86
2022-10-03T12:30:48.610Z,80.76
2022-10-03T12:32:10.757Z,80.73
2022-10-03T12:33:22.544Z,80.61
2022-10-03T12:34:40.551Z,79.82
2022-10-03T12:37:20.985Z,80.12
2022-10-03T12:38:46.517Z,80.66
2022-10-03T12:39:51.169Z,80.25
2022-10-03T12:41:20.207Z,79.99
2022-10-03T12:42:47.603Z,80.51
2022-10-03T12:43:53.347Z,80.51
2022-10-03T12:45:05.193Z,81.00
2022-10-03T12:46:17.385Z,80.92
2022-10-03T12:47:55.456Z,80.76
2022-10-03T12:49:00.825Z,81.00
2022-10-03T12:50:36.475Z,80.68
2022-10-03T12:51:51.502Z,80.93
2022-10-03T12:53:18.073Z,80.75
2022-10-03T12:54:44.954Z,81.33
2022-10-03T12:55:56.545Z,81.36
2022-10-03T12:57:21.872Z,81.61
2022-10-03T12:58:49.009Z,82.55
2022-10-03T12:59:57.693Z,84.21
2022-10-03T13:01:03.646Z,85.80
2022-10-03T13:02:40.105Z,88.27
2022-10-03T13:04:01.300Z,93.09
2022-10-03T13:05:25.797Z,95.98
2022-10-03T13:08:00.088Z,97.62
2022-10-03T13:09:05.959Z,98.05
2022-10-03T13:10:31.586Z,97.37
2022-10-03T13:11:40.826Z,98.03
2022-10-03T13:12:52.610Z,98.05
2022-10-03T13:13:56.265Z,98.42
2022-10-03T13:15:20.825Z,98.28
2022-10-03T13:16:32.389Z,98.18
2022-10-03T13:17:47.203Z,98.06
2022-10-03T13:19:06.618Z,99.33
2022-10-03T13:20:19.347Z,98.87
2022-10-03T13:21:45.396Z,97.00
2022-10-03T13:22:55.514Z,97.00
2022-10-03T13:24:01.241Z,97.10
2022-10-03T13:25:23.747Z,97.94
2022-10-03T13:26:38.781Z,97.94
2022-10-03T13:27:44.479Z,97.68
2022-10-03T13:29:13.689Z,96.85
2022-10-03T13:30:31.524Z,95.82
2022-10-03T13:31:36.448Z,95.12
2022-10-03T13:32:42.442Z,94.75
2022-10-03T13:33:48.226Z,94.65
2022-10-03T13:35:27.502Z,94.31
2022-10-03T13:36:51.157Z,94.24
2022-10-03T13:38:21.238Z,94.03
2022-10-03T13:39:29.994Z,93.61
2022-10-03T13:40:36.009Z,93.22
2022-10-03T13:41:42.136Z,93.58
2022-10-03T13:42:46.886Z,93.53
2022-10-03T13:43:58.857Z,91.56
2022-10-03T13:45:04.134Z,91.12
2022-10-03T13:46:13.160Z,91.48
2022-10-03T13:47:33.536Z,92.16
2022-10-03T13:48:36.275Z,93.08
2022-10-03T13:49:50.620Z,94.68
2022-10-03T13:50:59.186Z,94.49
2022-10-03T13:52:07.733Z,96.02
2022-10-03T13:53:39.622Z,95.59
2022-10-03T13:55:02.196Z,95.96
2022-10-03T13:56:10.860Z,95.00
2022-10-03T13:57:22.014Z,95.31
2022-10-03T14:00:11.543Z,95.35
2022-10-03T14:01:23.524Z,94.87
2022-10-03T14:02:50.643Z,95.30
2022-10-03T14:03:56.646Z,94.90
2022-10-03T14:05:11.469Z,94.13
2022-10-03T14:06:26.612Z,94.55
2022-10-03T14:07:38.673Z,94.80
2022-10-03T14:09:02.705Z,94.44
2022-10-03T14:10:08.515Z,93.72
2022-10-03T14:11:38.877Z,93.71
2022-10-03T14:13:03.290Z,93.71
2022-10-03T14:15:48.133Z,93.43
2022-10-03T14:17:01.066Z,92.63
2022-10-03T14:18:22.071Z,92.63
2022-10-03T14:19:53.610Z,92.21
2022-10-03T14:21:14.361Z,92.81
2022-10-03T14:22:28.940Z,93.00
2022-10-03T14:23:46.103Z,93.00
2022-10-03T14:25:01.116Z,91.88
2022-10-03T14:26:23.774Z,91.92
2022-10-03T14:27:41.955Z,92.05
2022-10-03T14:28:56.981Z,92.12
2022-10-03T14:30:14.661Z,92.06
2022-10-03T14:31:35.262Z,91.25
2022-10-03T14:33:05.250Z,90.83
2022-10-03T14:34:20.348Z,90.12
2022-10-03T14:35:29.183Z,90.92
2022-10-03T14:36:50.410Z,90.88
2022-10-03T14:38:05.031Z,90.93
2022-10-03T14:39:16.223Z,90.12
2022-10-03T14:40:31.364Z,90.29
2022-10-03T14:42:05.750Z,89.92
2022-10-03T14:43:17.490Z,90.38
2022-10-03T14:44:25.602Z,89.88
2022-10-03T14:46:50.152Z,89.72
2022-10-03T14:47:55.881Z,89.57
2022-10-03T14:49:03.947Z,89.62
2022-10-03T14:50:09.340Z,89.66
2022-10-03T14:51:44.110Z,88.79
2022-10-03T14:52:50.063Z,88.69
2022-10-03T14:53:58.843Z,88.72
2022-10-03T14:55:16.964Z,87.31
2022-10-03T14:56:20.215Z,85.79
2022-10-03T14:57:58.762Z,86.13
2022-10-03T14:58:48.508Z,85.89
2022-10-03T14:59:54.232Z,85.59
2022-10-03T15:01:06.242Z,84.44
2022-10-03T15:02:20.484Z,84.29
2022-10-03T15:03:25.943Z,84.12
2022-10-03T15:04:31.820Z,84.59
2022-10-03T15:05:35.513Z,84.52
2022-10-03T15:06:50.304Z,84.71
2022-10-03T15:07:52.981Z,84.77
2022-10-03T15:08:57.550Z,85.64
2022-10-03T15:10:02.285Z,84.96
2022-10-03T15:11:06.153Z,84.77
2022-10-03T15:12:21.088Z,85.33
2022-10-03T15:13:26.213Z,84.61
2022-10-03T15:14:31.980Z,84.54
2022-10-03T15:15:40.651Z,84.56
2022-10-03T15:18:01.559Z,85.30
2022-10-03T15:19:16.047Z,84.70
2022-10-03T15:20:21.819Z,85.15
2022-10-03T15:21:26.787Z,85.04
2022-10-03T15:22:32.521Z,85.19
2022-10-03T15:23:41.176Z,85.20
2022-10-03T15:24:44.426Z,84.41
2022-10-03T15:25:49.460Z,84.20
2022-10-03T15:27:04.600Z,84.00
2022-10-03T15:28:16.186Z,84.26
2022-10-03T15:29:20.527Z,84.71
2022-10-03T15:31:45.783Z,84.99
2022-10-03T15:32:50.182Z,85.21
2022-10-03T15:33:54.357Z,85.58
2022-10-03T15:35:00.102Z,85.03
2022-10-03T15:36:20.889Z,84.78
2022-10-03T15:37:26.154Z,84.79
2022-10-03T15:38:35.054Z,84.35
2022-10-03T15:39:39.221Z,84.15
2022-10-03T15:42:04.353Z,84.01
2022-10-03T15:43:08.104Z,83.68
2022-10-03T15:44:16.620Z,83.61
2022-10-03T15:45:25.447Z,83.54
2022-10-03T15:46:33.369Z,83.78
2022-10-03T15:47:39.069Z,82.86
2022-10-03T15:48:47.198Z,82.40
2022-10-03T15:50:05.194Z,82.57
2022-10-03T15:51:11.006Z,82.86
2022-10-03T15:52:19.760Z,82.61
2022-10-03T15:54:36.692Z,82.49
2022-10-03T15:55:45.406Z,82.34
2022-10-03T15:56:51.278Z,82.41
2022-10-03T15:59:24.634Z,82.34
2022-10-03T16:00:32.153Z,82.51
2022-10-03T16:01:39.275Z,82.30
2022-10-03T16:02:46.055Z,82.16
2022-10-03T16:03:57.794Z,82.45
2022-10-03T16:05:03.342Z,82.76
2022-10-03T16:06:12.529Z,82.89
2022-10-03T16:07:21.281Z,82.69
2022-10-03T16:08:27.667Z,82.53
2022-10-03T16:09:34.647Z,82.43
2022-10-03T16:10:41.622Z,82.58
2022-10-03T16:12:00.206Z,82.71
2022-10-03T16:13:18.522Z,81.96
2022-10-03T16:14:42.339Z,82.16
2022-10-03T16:15:51.106Z,82.46
2022-10-03T16:17:02.639Z,81.77
2022-10-03T16:18:20.668Z,82.04
2022-10-03T16:19:32.610Z,82.09
2022-10-03T16:20:44.477Z,82.20
2022-10-03T16:21:56.056Z,82.12
2022-10-03T16:23:20.335Z,82.44
2022-10-03T16:24:26.019Z,82.85
2022-10-03T16:25:40.535Z,82.28
2022-10-03T16:26:58.342Z,82.61
2022-10-03T16:28:10.047Z,82.06
2022-10-03T16:29:18.736Z,81.95
2022-10-03T16:30:24.597Z,81.75
2022-10-03T16:31:30.193Z,81.70
2022-10-03T16:32:36.047Z,81.92
2022-10-03T16:33:41.777Z,82.00
2022-10-03T16:34:45.822Z,81.93
2022-10-03T16:36:00.589Z,81.95
2022-10-03T16:37:04.900Z,81.82
2022-10-03T16:39:35.553Z,82.05
2022-10-03T16:40:38.413Z,82.46
2022-10-03T16:41:42.420Z,83.47
2022-10-03T16:42:46.294Z,83.53
2022-10-03T16:44:03.035Z,83.73
2022-10-03T16:45:09.232Z,84.61
2022-10-03T16:46:15.509Z,84.53
2022-10-03T16:47:20.294Z,85.35
2022-10-03T16:48:27.991Z,85.63
2022-10-03T16:49:57.619Z,87.08
2022-10-03T16:51:02.430Z,88.07
2022-10-03T16:52:11.182Z,90.04
2022-10-03T16:53:15.213Z,92.94
2022-10-03T16:54:19.467Z,94.62
2022-10-03T16:55:31.538Z,95.78
2022-10-03T16:56:37.422Z,96.03
2022-10-03T16:57:43.100Z,97.66
2022-10-03T16:58:51.831Z,98.50
2022-10-03T16:59:55.510Z,98.22
2022-10-03T17:01:25.996Z,99.58
2022-10-03T17:02:14.646Z,100.00
2022-10-03T17:03:23.417Z,100.00
2022-10-03T17:04:38.486Z,100.00
2022-10-03T17:05:44.167Z,100.00
2022-10-03T17:06:48.893Z,100.00
2022-10-03T17:07:57.863Z,100.00
2022-10-03T17:09:03.747Z,100.00
2022-10-03T17:10:25.149Z,100.00
2022-10-03T17:11:28.914Z,100.00
2022-10-03T17:12:40.231Z,100.00
2022-10-03T17:13:45.726Z,100.00
2022-10-03T17:14:50.136Z,100.00